createdAt,value
2018-12-18T00:00:21.496Z,102237.16
2018-12-18T00:02:50.856Z,102240.76
2018-12-18T00:05:25.391Z,102237.16
2018-12-18T00:07:53.264Z,102242.64
2018-12-18T00:10:21.013Z,102245.98
2018-12-18T00:12:48.760Z,102243.42
2018-12-18T00:15:16.493Z,102245.58
2018-12-18T00:17:44.265Z,102250.63
2018-12-18T00:20:12.008Z,102249.95
2018-12-18T00:22:39.737Z,102247.69
2018-12-18T00:25:07.463Z,102247.48
2018-12-18T00:27:35.168Z,102243.02
2018-12-18T00:30:03.617Z,102246.56
2018-12-18T00:32:31.345Z,102246.83
2018-12-18T00:34:59.073Z,102247.03
2018-12-18T00:37:26.801Z,102253.77
2018-12-18T00:39:54.474Z,102253.41
2018-12-18T00:42:23.185Z,102263.36
2018-12-18T00:44:50.898Z,102260.82
2018-12-18T00:47:18.633Z,102254.89
2018-12-18T00:49:46.353Z,102261.77
2018-12-18T00:52:14.124Z,102258.95
2018-12-18T00:54:41.857Z,102263.09
2018-12-18T00:57:09.536Z,102263.03
2018-12-18T00:59:37.279Z,102263.46
2018-12-18T01:02:05.141Z,102259.33
2018-12-18T01:04:32.920Z,102264.15
2018-12-18T01:07:00.663Z,102266.64
2018-12-18T01:09:28.511Z,102270.05
2018-12-18T01:11:56.269Z,102273.41
2018-12-18T01:14:24.056Z,102262.69
2018-12-18T01:16:51.840Z,102264.34
2018-12-18T01:19:19.584Z,102268.97
2018-12-18T01:21:47.262Z,102268.34
2018-12-18T01:24:15.016Z,102258.08
2018-12-18T01:26:42.765Z,102260.76
2018-12-18T01:29:10.520Z,102262.95
2018-12-18T01:31:38.244Z,102273.20
2018-12-18T01:34:05.945Z,102276.83
2018-12-18T01:36:33.677Z,102269.34
2018-12-18T01:39:01.401Z,102269.16
2018-12-18T01:41:29.148Z,102256.02
2018-12-18T01:43:56.910Z,102260.54
2018-12-18T01:46:24.651Z,102270.25
2018-12-18T01:48:53.043Z,102274.84
2018-12-18T01:51:20.779Z,102277.44
2018-12-18T01:53:48.661Z,102282.45
2018-12-18T01:56:16.339Z,102282.66
2018-12-18T01:58:44.045Z,102277.66
2018-12-18T02:01:11.752Z,102281.20
2018-12-18T02:03:39.517Z,102283.56
2018-12-18T02:06:07.261Z,102277.84
2018-12-18T02:08:34.988Z,102280.45
2018-12-18T02:11:02.788Z,102279.58
2018-12-18T02:13:30.544Z,102282.79
2018-12-18T02:15:58.293Z,102278.12
2018-12-18T02:18:26.024Z,102277.84
2018-12-18T02:20:53.761Z,102282.04
2018-12-18T02:23:21.465Z,102289.13
2018-12-18T02:25:50.963Z,102285.46
2018-12-18T02:28:18.701Z,102279.48
2018-12-18T02:30:46.500Z,102276.28
2018-12-18T02:33:14.216Z,102274.94
2018-12-18T02:35:41.945Z,102267.03
2018-12-18T02:38:09.682Z,102261.28
2018-12-18T02:40:37.387Z,102260.64
2018-12-18T02:43:05.121Z,102266.09
2018-12-18T02:45:32.971Z,102270.36
2018-12-18T02:48:00.887Z,102282.38
2018-12-18T02:50:28.666Z,102272.42
2018-12-18T02:52:56.370Z,102263.67
2018-12-18T02:55:24.102Z,102261.48
2018-12-18T02:57:51.833Z,102254.58
2018-12-18T03:00:19.572Z,102260.87
2018-12-18T03:02:47.357Z,102255.95
2018-12-18T03:05:15.098Z,102256.17
2018-12-18T03:07:42.816Z,102262.66
2018-12-18T03:10:10.553Z,102259.47
2018-12-18T03:12:38.300Z,102269.47
2018-12-18T03:15:06.165Z,102265.17
2018-12-18T03:17:34.021Z,102263.61
2018-12-18T03:20:03.671Z,102260.31
2018-12-18T03:22:31.470Z,102261.20
2018-12-18T03:24:59.232Z,102256.95
2018-12-18T03:27:26.929Z,102261.27
2018-12-18T03:29:54.760Z,102262.57
2018-12-18T03:32:26.173Z,102264.66
2018-12-18T03:34:53.958Z,102258.91
2018-12-18T03:37:21.712Z,102271.25
2018-12-18T03:39:49.415Z,102266.37
2018-12-18T03:42:18.103Z,102264.63
2018-12-18T03:44:45.846Z,102264.35
2018-12-18T03:47:13.567Z,102266.37
2018-12-18T03:49:41.301Z,102258.44
2018-12-18T03:52:09.672Z,102260.45
2018-12-18T03:54:37.529Z,102265.73
2018-12-18T03:57:05.253Z,102274.48
2018-12-18T03:59:33.255Z,102270.13
2018-12-18T04:02:01.041Z,102273.93
2018-12-18T04:04:35.334Z,102275.41
2018-12-18T04:06:58.492Z,102273.48
2018-12-18T04:09:26.281Z,102269.86
2018-12-18T04:11:59.477Z,102272.80
2018-12-18T04:14:27.224Z,102272.80
2018-12-18T04:16:54.977Z,102274.67
2018-12-18T04:19:22.731Z,102275.62
2018-12-18T04:21:50.476Z,102278.81
2018-12-18T04:24:18.176Z,102276.41
2018-12-18T04:26:45.927Z,102267.78
2018-12-18T04:29:13.632Z,102271.22
2018-12-18T04:31:41.397Z,102281.06
2018-12-18T04:34:09.101Z,102275.62
2018-12-18T04:36:36.850Z,102287.73
2018-12-18T04:39:06.089Z,102285.73
2018-12-18T04:41:33.849Z,102291.45
2018-12-18T04:44:01.576Z,102293.95
2018-12-18T04:46:29.265Z,102289.34
2018-12-18T04:48:56.925Z,102284.33
2018-12-18T04:51:24.690Z,102284.87
2018-12-18T04:53:52.436Z,102280.38
2018-12-18T04:56:20.193Z,102277.29
2018-12-18T04:58:48.932Z,102276.47
2018-12-18T05:01:16.658Z,102278.59
2018-12-18T05:03:44.428Z,102279.75
2018-12-18T05:06:12.195Z,102279.41
2018-12-18T05:08:39.969Z,102281.88
2018-12-18T05:11:07.668Z,102284.94
2018-12-18T05:13:35.374Z,102281.21
2018-12-18T05:16:03.051Z,102289.55
2018-12-18T05:18:30.768Z,102286.86
2018-12-18T05:20:58.506Z,102292.36
2018-12-18T05:23:26.220Z,102288.10
2018-12-18T05:25:54.119Z,102289.25
2018-12-18T05:28:21.921Z,102295.42
2018-12-18T05:30:49.671Z,102300.14
2018-12-18T05:33:17.421Z,102300.19
2018-12-18T05:35:45.155Z,102304.56
2018-12-18T05:38:12.894Z,102298.48
2018-12-18T05:40:40.683Z,102303.73
2018-12-18T05:43:08.415Z,102306.53
2018-12-18T05:45:36.172Z,102305.63
2018-12-18T05:48:03.910Z,102306.67
2018-12-18T05:50:31.598Z,102303.72
2018-12-18T05:52:59.325Z,102303.35
2018-12-18T05:55:27.060Z,102298.78
2018-12-18T05:57:54.824Z,102305.03
2018-12-18T06:00:22.555Z,102305.78
2018-12-18T06:02:50.311Z,102308.34
2018-12-18T06:05:18.057Z,102309.24
2018-12-18T06:07:45.831Z,102310.75
2018-12-18T06:10:13.539Z,102309.77
2018-12-18T06:12:41.261Z,102311.08
2018-12-18T06:15:09.751Z,102318.64
2018-12-18T06:17:37.512Z,102318.31
2018-12-18T06:20:05.678Z,102309.58
2018-12-18T06:22:33.409Z,102309.02
2018-12-18T06:25:01.149Z,102310.39
2018-12-18T06:27:28.896Z,102305.17
2018-12-18T06:29:56.639Z,102303.57
2018-12-18T06:32:24.398Z,102302.02
2018-12-18T06:34:52.114Z,102300.35
2018-12-18T06:37:19.849Z,102300.06
2018-12-18T06:39:47.553Z,102295.17
2018-12-18T06:42:15.258Z,102292.98
2018-12-18T06:44:42.990Z,102300.19
2018-12-18T06:47:11.984Z,102296.48
2018-12-18T06:49:39.755Z,102295.24
2018-12-18T06:52:07.535Z,102290.34
2018-12-18T06:54:35.262Z,102292.48
2018-12-18T06:57:03.036Z,102288.72
2018-12-18T06:59:30.748Z,102282.78
2018-12-18T07:01:58.455Z,102276.78
2018-12-18T07:04:26.185Z,102270.73
2018-12-18T07:06:53.938Z,102266.80
2018-12-18T07:09:21.940Z,102265.00
2018-12-18T07:11:49.770Z,102254.25
2018-12-18T07:14:17.592Z,102250.13
2018-12-18T07:16:45.389Z,102250.95
2018-12-18T07:19:13.369Z,102243.80
2018-12-18T07:21:41.173Z,102245.30
2018-12-18T07:24:14.129Z,102227.39
2018-12-18T07:26:38.722Z,102225.19
2018-12-18T07:29:06.453Z,102220.77
2018-12-18T07:31:34.212Z,102225.47
2018-12-18T07:34:01.896Z,102227.31
2018-12-18T07:36:29.657Z,102223.54
2018-12-18T07:38:57.494Z,102210.83
2018-12-18T07:41:25.257Z,102202.19
2018-12-18T07:43:54.784Z,102209.34
2018-12-18T07:46:23.360Z,102219.17
2018-12-18T07:48:51.062Z,102221.46
2018-12-18T07:51:19.132Z,102215.50
2018-12-18T07:53:47.242Z,102212.80
2018-12-18T07:56:15.031Z,102211.94
2018-12-18T07:58:42.772Z,102200.06
2018-12-18T08:01:10.541Z,102199.66
2018-12-18T08:03:38.724Z,102199.92
2018-12-18T08:06:06.801Z,102205.39
2018-12-18T08:08:34.581Z,102202.69
2018-12-18T08:11:02.364Z,102203.34
2018-12-18T08:13:30.487Z,102197.62
2018-12-18T08:15:58.273Z,102206.17
2018-12-18T08:18:26.186Z,102215.53
2018-12-18T08:20:54.037Z,102219.83
2018-12-18T08:23:21.840Z,102224.16
2018-12-18T08:25:49.653Z,102220.48
2018-12-18T08:28:17.345Z,102226.13
2018-12-18T08:30:45.118Z,102233.00
2018-12-18T08:33:12.932Z,102230.83
2018-12-18T08:35:40.684Z,102240.36
2018-12-18T08:38:08.421Z,102235.56
2018-12-18T08:40:36.256Z,102237.81
2018-12-18T08:43:04.041Z,102237.41
2018-12-18T08:45:31.854Z,102239.48
2018-12-18T08:47:59.585Z,102250.48
2018-12-18T08:50:27.435Z,102247.05
2018-12-18T08:52:55.213Z,102240.23
2018-12-18T08:55:22.977Z,102227.44
2018-12-18T08:57:50.794Z,102232.38
2018-12-18T09:00:18.618Z,102234.18
2018-12-18T09:02:46.415Z,102230.30
2018-12-18T09:05:14.282Z,102220.33
2018-12-18T09:07:42.048Z,102214.52
2018-12-18T09:10:10.340Z,102211.00
2018-12-18T09:12:38.070Z,102213.03
2018-12-18T09:15:12.369Z,102204.43
2018-12-18T09:17:48.166Z,102205.50
2018-12-18T09:20:15.954Z,102208.97
2018-12-18T09:22:43.853Z,102208.17
2018-12-18T09:25:11.740Z,102203.95
2018-12-18T09:27:39.465Z,102212.00
2018-12-18T09:30:09.880Z,102217.57
2018-12-18T09:32:37.671Z,102227.42
2018-12-18T09:35:06.199Z,102230.66
2018-12-18T09:37:33.961Z,102232.14
2018-12-18T09:40:01.714Z,102231.64
2018-12-18T09:42:35.005Z,102237.37
2018-12-18T09:45:02.784Z,102230.03
2018-12-18T09:47:30.569Z,102218.17
2018-12-18T09:49:58.336Z,102215.92
2018-12-18T09:52:26.052Z,102221.58
2018-12-18T09:54:53.820Z,102214.53
2018-12-18T09:58:27.676Z,102201.52
2018-12-18T10:00:55.813Z,102199.14
2018-12-18T10:03:23.761Z,102198.81
2018-12-18T10:05:56.262Z,102186.33
2018-12-18T10:08:21.573Z,102193.38
2018-12-18T10:10:49.286Z,102185.32
2018-12-18T10:13:17.025Z,102177.35
2018-12-18T10:15:44.744Z,102171.02
2018-12-18T10:18:12.484Z,102161.56
2018-12-18T10:20:40.192Z,102156.72
2018-12-18T10:23:07.893Z,102164.78
2018-12-18T10:25:35.637Z,102156.13
2018-12-18T10:28:03.388Z,102150.27
2018-12-18T10:30:31.157Z,102137.28
2018-12-18T10:32:59.111Z,102128.23
2018-12-18T10:35:26.880Z,102118.64
2018-12-18T10:37:54.575Z,102106.66
2018-12-18T10:40:22.439Z,102102.02
2018-12-18T10:42:50.181Z,102100.02
2018-12-18T10:45:19.808Z,102095.19
2018-12-18T10:47:47.526Z,102086.93
2018-12-18T10:50:15.306Z,102090.95
2018-12-18T10:52:43.052Z,102090.66
2018-12-18T10:55:10.812Z,102083.79
2018-12-18T10:57:38.579Z,102078.58
2018-12-18T11:00:12.685Z,102071.73
2018-12-18T11:02:40.429Z,102065.16
2018-12-18T11:05:08.259Z,102067.67
2018-12-18T11:07:36.002Z,102078.47
2018-12-18T11:10:04.054Z,102071.00
2018-12-18T11:12:38.696Z,102070.81
2018-12-18T11:15:07.677Z,102073.13
2018-12-18T11:17:35.529Z,102069.00
2018-12-18T11:20:03.794Z,102067.10
2018-12-18T11:22:31.484Z,102072.84
2018-12-18T11:24:59.208Z,102064.84
2018-12-18T11:27:26.933Z,102062.44
2018-12-18T11:29:54.690Z,102050.25
2018-12-18T11:32:22.385Z,102045.02
2018-12-18T11:34:50.126Z,102037.34
2018-12-18T11:37:17.839Z,102042.39
2018-12-18T11:39:45.633Z,102040.48
2018-12-18T11:42:13.377Z,102045.73
2018-12-18T11:44:41.451Z,102032.22
2018-12-18T11:47:09.336Z,102031.21
2018-12-18T11:49:37.104Z,102030.20
2018-12-18T11:52:04.841Z,102029.27
2018-12-18T11:54:32.584Z,102023.13
2018-12-18T11:57:00.311Z,102029.67
2018-12-18T11:59:28.061Z,102018.48
2018-12-18T12:01:55.767Z,102015.91
2018-12-18T12:04:23.543Z,102013.97
2018-12-18T12:06:51.262Z,102017.22
2018-12-18T12:09:18.977Z,102012.66
2018-12-18T12:11:46.680Z,102010.33
2018-12-18T12:14:14.369Z,102011.15
2018-12-18T12:16:42.093Z,102014.41
2018-12-18T12:19:09.817Z,102014.19
2018-12-18T12:21:37.596Z,102011.56
2018-12-18T12:24:05.397Z,102008.90
2018-12-18T12:26:33.968Z,101999.73
2018-12-18T12:29:02.104Z,101996.75
2018-12-18T12:31:29.844Z,102000.19
2018-12-18T12:33:57.631Z,102001.80
2018-12-18T12:36:29.567Z,102002.33
2018-12-18T12:38:55.071Z,101994.28
2018-12-18T12:41:22.795Z,101982.27
2018-12-18T12:43:50.622Z,101987.51
2018-12-18T12:46:18.369Z,101979.06
2018-12-18T12:48:51.723Z,101973.00
2018-12-18T12:51:19.400Z,101974.95
2018-12-18T12:53:47.123Z,101973.29
2018-12-18T12:56:14.836Z,101969.41
2018-12-18T12:58:42.582Z,101955.72
2018-12-18T13:01:10.253Z,101950.44
2018-12-18T13:03:37.940Z,101951.45
2018-12-18T13:06:05.639Z,101945.80
2018-12-18T13:08:33.383Z,101939.73
2018-12-18T13:11:01.184Z,101944.00
2018-12-18T13:13:28.894Z,101935.97
2018-12-18T13:15:56.624Z,101932.52
2018-12-18T13:18:24.332Z,101934.13
2018-12-18T13:20:52.043Z,101937.58
2018-12-18T13:23:19.805Z,101928.11
2018-12-18T13:25:47.553Z,101920.86
2018-12-18T13:28:15.284Z,101929.00
2018-12-18T13:30:42.988Z,101924.13
2018-12-18T13:33:10.690Z,101926.34
2018-12-18T13:35:38.401Z,101925.85
2018-12-18T13:38:06.258Z,101922.34
2018-12-18T13:40:34.015Z,101910.73
2018-12-18T13:43:01.783Z,101913.94
2018-12-18T13:45:29.533Z,101905.42
2018-12-18T13:47:57.216Z,101898.87
2018-12-18T13:50:24.960Z,101885.47
2018-12-18T13:52:52.721Z,101881.82
2018-12-18T13:55:20.448Z,101884.07
2018-12-18T13:57:48.175Z,101877.39
2018-12-18T14:00:15.900Z,101875.59
2018-12-18T14:02:43.645Z,101877.19
2018-12-18T14:05:11.614Z,101874.81
2018-12-18T14:07:39.320Z,101867.95
2018-12-18T14:10:07.599Z,101865.56
2018-12-18T14:12:35.465Z,101859.47
2018-12-18T14:15:03.439Z,101862.40
2018-12-18T14:17:31.187Z,101867.50
2018-12-18T14:19:59.001Z,101865.02
2018-12-18T14:22:26.719Z,101865.39
2018-12-18T14:24:54.413Z,101861.78
2018-12-18T14:27:22.194Z,101855.60
2018-12-18T14:29:49.894Z,101860.36
2018-12-18T14:32:17.600Z,101850.83
2018-12-18T14:34:45.314Z,101843.00
2018-12-18T14:37:13.137Z,101841.38
2018-12-18T14:39:40.918Z,101844.73
2018-12-18T14:42:08.652Z,101847.14
2018-12-18T14:44:36.341Z,101836.97
2018-12-18T14:52:02.460Z,101832.69
2018-12-18T14:54:30.350Z,101829.30
2018-12-18T14:56:58.496Z,101820.23
2018-12-18T14:59:26.295Z,101813.36
2018-12-18T15:01:54.069Z,101810.73
2018-12-18T15:04:21.804Z,101806.72
2018-12-18T15:06:49.594Z,101801.98
2018-12-18T15:09:17.351Z,101798.78
2018-12-18T15:11:45.132Z,101796.81
2018-12-18T15:14:14.317Z,101795.40
2018-12-18T15:16:42.232Z,101798.55
2018-12-18T15:19:10.021Z,101794.86
2018-12-18T15:21:37.772Z,101794.74
2018-12-18T15:24:05.604Z,101798.42
2018-12-18T15:26:33.341Z,101800.44
2018-12-18T15:29:01.138Z,101796.22
2018-12-18T15:31:28.861Z,101787.55
2018-12-18T15:33:56.629Z,101787.36
2018-12-18T15:36:24.415Z,101784.93
2018-12-18T15:38:52.170Z,101784.87
2018-12-18T15:41:19.936Z,101779.33
2018-12-18T15:43:47.661Z,101784.73
2018-12-18T15:46:15.414Z,101776.55
2018-12-18T15:48:43.623Z,101781.90
2018-12-18T15:51:13.266Z,101782.02
2018-12-18T15:53:41.000Z,101784.51
2018-12-18T15:56:08.829Z,101784.22
2018-12-18T15:58:36.561Z,101779.52
2018-12-18T16:01:05.772Z,101784.73
2018-12-18T16:03:33.539Z,101785.17
2018-12-18T16:06:01.711Z,101780.81
2018-12-18T16:08:29.429Z,101779.21
2018-12-18T16:10:57.179Z,101778.45
2018-12-18T16:13:24.928Z,101769.28
2018-12-18T16:15:52.662Z,101769.05
2018-12-18T16:18:20.388Z,101757.76
2018-12-18T16:20:48.214Z,101756.98
2018-12-18T16:23:15.960Z,101749.44
2018-12-18T16:25:43.743Z,101751.15
2018-12-18T16:28:11.515Z,101753.47
2018-12-18T16:30:39.335Z,101741.89
2018-12-18T16:33:07.972Z,101742.76
2018-12-18T16:35:36.081Z,101736.22
2018-12-18T16:38:03.809Z,101726.18
2018-12-18T16:40:31.788Z,101725.24
2018-12-18T16:42:59.558Z,101728.20
2018-12-18T16:45:27.326Z,101725.70
2018-12-18T16:47:55.130Z,101715.47
2018-12-18T16:50:26.553Z,101717.89
2018-12-18T16:52:52.688Z,101717.41
2018-12-18T16:55:20.416Z,101707.16
2018-12-18T16:57:48.159Z,101707.67
2018-12-18T17:00:15.909Z,101691.78
2018-12-18T17:02:44.996Z,101684.13
2018-12-18T17:05:13.025Z,101680.52
2018-12-18T17:07:41.084Z,101681.73
2018-12-18T17:10:09.415Z,101682.44
2018-12-18T17:12:40.497Z,101670.47
2018-12-18T17:15:08.306Z,101671.80
2018-12-18T17:17:37.028Z,101667.58
2018-12-18T17:20:04.838Z,101655.75
2018-12-18T17:22:32.609Z,101656.31
2018-12-18T17:25:00.384Z,101659.12
2018-12-18T17:27:28.093Z,101653.13
2018-12-18T17:29:56.676Z,101653.34
2018-12-18T17:32:25.344Z,101644.70
2018-12-18T17:34:53.460Z,101641.68
2018-12-18T17:37:21.832Z,101641.16
2018-12-18T17:39:49.915Z,101640.75
2018-12-18T17:42:17.715Z,101649.70
2018-12-18T17:44:45.470Z,101649.10
2018-12-18T17:47:13.305Z,101633.33
2018-12-18T17:49:41.307Z,101633.11
2018-12-18T17:52:09.373Z,101630.50
2018-12-18T17:54:37.135Z,101619.78
2018-12-18T17:57:04.929Z,101621.58
2018-12-18T17:59:32.689Z,101617.25
2018-12-18T18:02:00.427Z,101616.34
2018-12-18T18:04:28.235Z,101608.48
2018-12-18T18:06:55.965Z,101598.14
2018-12-18T18:09:23.877Z,101598.85
2018-12-18T18:11:51.629Z,101595.13
2018-12-18T18:14:19.379Z,101592.03
2018-12-18T18:16:48.097Z,101589.91
2018-12-18T18:19:15.883Z,101594.53
2018-12-18T18:21:43.645Z,101599.22
2018-12-18T18:24:11.377Z,101591.50
2018-12-18T18:26:39.092Z,101578.55
2018-12-18T18:29:07.171Z,101579.86
2018-12-18T18:31:34.969Z,101573.86
2018-12-18T18:34:02.737Z,101566.20
2018-12-18T18:36:30.667Z,101569.83
2018-12-18T18:38:59.145Z,101557.77
2018-12-18T18:41:26.898Z,101559.86
2018-12-18T18:43:54.680Z,101559.86
2018-12-18T18:46:22.422Z,101563.59
2018-12-18T18:48:50.159Z,101556.41
2018-12-18T18:51:17.866Z,101544.60
2018-12-18T18:53:45.620Z,101539.02
2018-12-18T18:56:13.740Z,101535.98
2018-12-18T18:58:41.501Z,101536.47
2018-12-18T19:01:09.269Z,101545.61
2018-12-18T19:03:37.050Z,101545.84
2018-12-18T19:06:04.780Z,101546.02
2018-12-18T19:08:32.549Z,101546.31
2018-12-18T19:11:01.029Z,101535.22
2018-12-18T19:13:28.784Z,101553.02
2018-12-18T19:15:56.493Z,101544.95
2018-12-18T19:18:24.201Z,101554.04
2018-12-18T19:20:51.944Z,101543.18
2018-12-18T19:23:19.705Z,101537.45
2018-12-18T19:25:48.427Z,101527.97
2018-12-18T19:28:16.224Z,101524.94
2018-12-18T19:30:44.005Z,101517.28
2018-12-18T19:33:11.786Z,101519.38
2018-12-18T19:35:39.635Z,101520.91
2018-12-18T19:38:07.588Z,101526.95
2018-12-18T19:40:36.193Z,101522.88
2018-12-18T19:43:04.060Z,101513.79
2018-12-18T19:45:31.823Z,101504.53
2018-12-18T19:48:00.093Z,101501.67
2018-12-18T19:50:27.846Z,101506.95
2018-12-18T19:52:55.615Z,101501.31
2018-12-18T19:55:23.361Z,101492.59
2018-12-18T19:57:51.081Z,101483.98
2018-12-18T20:00:18.851Z,101486.80
2018-12-18T20:02:46.594Z,101493.13
2018-12-18T20:05:14.508Z,101486.50
2018-12-18T20:07:42.276Z,101482.38
2018-12-18T20:10:10.005Z,101476.33
2018-12-18T20:12:37.790Z,101475.22
2018-12-18T20:15:05.705Z,101478.71
2018-12-18T20:17:33.485Z,101469.62
2018-12-18T20:20:01.245Z,101469.22
2018-12-18T20:22:29.225Z,101461.78
2018-12-18T20:24:56.990Z,101459.11
2018-12-18T20:27:25.037Z,101455.48
2018-12-18T20:29:53.009Z,101460.30
2018-12-18T20:32:20.754Z,101455.59
2018-12-18T20:34:49.537Z,101452.70
2018-12-18T20:37:18.344Z,101439.33
2018-12-18T20:39:49.462Z,101432.88
2018-12-18T20:42:17.274Z,101433.57
2018-12-18T20:44:44.981Z,101428.06
2018-12-18T20:47:12.778Z,101417.80
2018-12-18T20:49:41.537Z,101408.12
2018-12-18T20:52:09.285Z,101398.83
2018-12-18T20:54:37.145Z,101389.11
2018-12-18T20:57:04.890Z,101391.46
2018-12-18T20:59:32.639Z,101379.09
2018-12-18T21:02:00.541Z,101372.08
2018-12-18T21:04:28.400Z,101362.83
2018-12-18T21:06:56.691Z,101355.47
2018-12-18T21:09:24.528Z,101357.48
2018-12-18T21:11:52.288Z,101353.46
2018-12-18T21:14:20.065Z,101349.55
2018-12-18T21:16:47.852Z,101350.20
2018-12-18T21:19:15.618Z,101342.44
2018-12-18T21:21:43.676Z,101343.44
2018-12-18T21:24:11.485Z,101334.12
2018-12-18T21:26:39.926Z,101322.80
2018-12-18T21:29:08.778Z,101317.28
2018-12-18T21:31:36.572Z,101329.14
2018-12-18T21:34:04.376Z,101329.20
2018-12-18T21:36:32.276Z,101324.23
2018-12-18T21:39:00.066Z,101319.55
2018-12-18T21:41:28.406Z,101327.20
2018-12-18T21:43:56.165Z,101316.53
2018-12-18T21:46:23.911Z,101310.78
2018-12-18T21:48:51.751Z,101315.57
2018-12-18T21:51:20.471Z,101308.28
2018-12-18T21:53:48.330Z,101296.36
2018-12-18T21:56:16.109Z,101299.04
2018-12-18T21:58:43.819Z,101278.88
2018-12-18T22:01:11.586Z,101235.09
2018-12-18T22:03:39.367Z,101231.17
2018-12-18T22:06:07.166Z,101249.68
2018-12-18T22:08:36.971Z,101244.63
2018-12-18T22:11:04.978Z,101249.97
2018-12-18T22:13:33.256Z,101241.91
2018-12-18T22:16:01.035Z,101254.83
2018-12-18T22:18:28.814Z,101256.66
2018-12-18T22:20:56.547Z,101251.03
2018-12-18T22:23:24.315Z,101252.98
2018-12-18T22:25:53.121Z,101250.44
2018-12-18T22:28:20.892Z,101251.92
2018-12-18T22:30:48.692Z,101249.50
2018-12-18T22:33:16.427Z,101254.30
2018-12-18T22:35:44.173Z,101252.41
2018-12-18T22:38:11.931Z,101248.08
2018-12-18T22:40:39.688Z,101250.02
2018-12-18T22:43:07.405Z,101249.68
2018-12-18T22:45:35.119Z,101274.27
2018-12-18T22:48:02.896Z,101258.03
2018-12-18T22:50:30.646Z,101247.53
2018-12-18T22:52:58.406Z,101247.17
2018-12-18T22:55:26.126Z,101234.65
2018-12-18T22:57:54.414Z,101223.63
2018-12-18T23:00:27.772Z,101221.89
2018-12-18T23:02:55.524Z,101208.15
2018-12-18T23:05:23.247Z,101197.91
2018-12-18T23:07:50.986Z,101183.45
2018-12-18T23:10:18.732Z,101177.36
2018-12-18T23:12:46.592Z,101176.30
2018-12-18T23:15:14.429Z,101171.08
2018-12-18T23:17:42.264Z,101165.95
2018-12-18T23:20:10.033Z,101155.11
2018-12-18T23:22:37.745Z,101149.00
2018-12-18T23:25:05.495Z,101144.50
2018-12-18T23:27:33.195Z,101149.06
2018-12-18T23:30:00.966Z,101140.84
2018-12-18T23:32:28.692Z,101138.98
2018-12-18T23:34:56.420Z,101135.86
2018-12-18T23:37:24.161Z,101128.90
2018-12-18T23:39:51.889Z,101127.52
2018-12-18T23:42:19.655Z,101126.42
2018-12-18T23:44:48.382Z,101114.68
2018-12-18T23:47:16.154Z,101103.91
2018-12-18T23:49:43.864Z,101095.83
2018-12-18T23:52:11.748Z,101088.95
2018-12-18T23:54:39.480Z,101099.05
2018-12-18T23:57:07.257Z,101095.69
2018-12-18T23:59:34.968Z,101083.34
